Andice, Texas
Current Conditions -  °F | °C
As of 12:48 PM on Thursday 27 Nov 2014 (Local Time) from KGTU Reporting Station
Clear Clear  
Wind Chill: 57°   Ceiling: Unl
Heat Index: 57°   Visibility: 10mi
Dew Point: 25°   Wind: 6mph
Humidity: 29%   Direction: 100°E
Pressure: 30.48"   Gusts: NA
Location:  30.6575°N, 97.7523°W
Report Text: KGTU 271848Z 10005KT 10SM SKC 14/M04 A3048
Loading
Personal Weather Stations






























Interactive Weather Map New forecast layout! Learn more

10-Day Weather Forecast

Advertisements
Track Severe Weather on mobile